createdAt,value
2023-01-09T00:00:01.809Z,932.09
2023-01-09T00:00:11.852Z,932.10
2023-01-09T00:00:21.859Z,932.09
2023-01-09T00:00:31.833Z,932.10
2023-01-09T00:00:41.915Z,932.08
2023-01-09T00:00:51.819Z,932.09
2023-01-09T00:01:01.805Z,932.09
2023-01-09T00:01:11.810Z,932.09
2023-01-09T00:01:21.815Z,932.08
2023-01-09T00:01:31.807Z,932.09
2023-01-09T00:01:41.818Z,932.09
2023-01-09T00:01:51.794Z,932.08
2023-01-09T00:02:01.846Z,932.09
2023-01-09T00:02:11.822Z,932.07
2023-01-09T00:02:21.903Z,932.08
2023-01-09T00:02:31.858Z,932.07
2023-01-09T00:02:41.842Z,932.05
2023-01-09T00:02:51.818Z,932.04
2023-01-09T00:03:01.814Z,932.03
2023-01-09T00:03:11.821Z,932.02
2023-01-09T00:03:21.826Z,932.01
2023-01-09T00:03:31.855Z,931.99
2023-01-09T00:03:41.862Z,931.98
2023-01-09T00:03:51.870Z,931.98
2023-01-09T00:04:01.877Z,931.98
2023-01-09T00:04:11.859Z,931.97
2023-01-09T00:04:21.842Z,931.96
2023-01-09T00:04:31.826Z,931.95
2023-01-09T00:04:41.828Z,931.93
2023-01-09T00:04:51.830Z,931.91
2023-01-09T00:05:01.833Z,931.90
2023-01-09T00:05:11.838Z,931.90
2023-01-09T00:05:21.839Z,931.91
2023-01-09T00:05:31.834Z,931.91
2023-01-09T00:05:41.848Z,931.92
2023-01-09T00:05:51.838Z,931.92
2023-01-09T00:06:01.832Z,931.92
2023-01-09T00:06:11.836Z,931.91
2023-01-09T00:06:21.836Z,931.91
2023-01-09T00:06:31.837Z,931.92
2023-01-09T00:06:41.840Z,931.93
2023-01-09T00:06:51.842Z,931.94
2023-01-09T00:07:01.844Z,931.94
2023-01-09T00:07:11.839Z,931.95
2023-01-09T00:07:21.847Z,931.96
2023-01-09T00:07:31.844Z,931.96
2023-01-09T00:07:41.846Z,931.95
2023-01-09T00:07:51.851Z,931.95
2023-01-09T00:08:01.857Z,931.96
2023-01-09T00:08:11.846Z,931.96
2023-01-09T00:08:21.861Z,931.95
2023-01-09T00:08:31.850Z,931.96
2023-01-09T00:08:41.867Z,931.95
2023-01-09T00:08:51.849Z,931.96
2023-01-09T00:09:01.852Z,931.95
2023-01-09T00:09:11.855Z,931.94
2023-01-09T00:09:21.857Z,931.94
2023-01-09T00:09:31.855Z,931.94
2023-01-09T00:09:41.863Z,931.94
2023-01-09T00:09:51.860Z,931.95
2023-01-09T00:10:01.854Z,931.93
2023-01-09T00:10:11.860Z,931.94
2023-01-09T00:10:21.859Z,931.95
2023-01-09T00:10:31.867Z,931.95
2023-01-09T00:10:41.875Z,931.95
2023-01-09T00:10:51.863Z,931.94
2023-01-09T00:11:01.862Z,931.94
2023-01-09T00:11:11.884Z,931.93
2023-01-09T00:11:21.868Z,931.93
2023-01-09T00:11:31.862Z,931.94
2023-01-09T00:11:41.874Z,931.95
2023-01-09T00:11:51.864Z,931.94
2023-01-09T00:12:01.870Z,931.94
2023-01-09T00:12:11.870Z,931.94
2023-01-09T00:12:21.868Z,931.95
2023-01-09T00:12:31.876Z,931.95
2023-01-09T00:12:41.858Z,931.95
2023-01-09T00:12:51.875Z,931.95
2023-01-09T00:13:01.884Z,931.95
2023-01-09T00:13:11.882Z,931.95
2023-01-09T00:13:21.874Z,931.96
2023-01-09T00:13:31.886Z,931.95
2023-01-09T00:13:41.875Z,931.96
2023-01-09T00:13:51.879Z,931.95
2023-01-09T00:14:01.883Z,931.94
2023-01-09T00:14:11.895Z,931.95
2023-01-09T00:14:21.877Z,931.96
2023-01-09T00:14:31.878Z,931.95
2023-01-09T00:14:41.862Z,931.95
2023-01-09T00:14:51.881Z,931.94
2023-01-09T00:15:01.889Z,931.93
2023-01-09T00:15:11.903Z,931.93
2023-01-09T00:15:21.893Z,931.94
2023-01-09T00:15:31.885Z,931.94
2023-01-09T00:15:41.915Z,931.93
2023-01-09T00:15:51.883Z,931.92
2023-01-09T00:16:01.885Z,931.91
2023-01-09T00:16:11.884Z,931.92
2023-01-09T00:16:21.904Z,931.91
2023-01-09T00:16:31.955Z,931.89
2023-01-09T00:16:41.926Z,931.88
2023-01-09T00:16:52.035Z,931.89
2023-01-09T00:17:01.911Z,931.89
2023-01-09T00:17:11.903Z,931.88
2023-01-09T00:17:21.892Z,931.88
2023-01-09T00:17:31.899Z,931.88
2023-01-09T00:17:41.902Z,931.87
2023-01-09T00:17:51.883Z,931.88
2023-01-09T00:18:01.895Z,931.88
2023-01-09T00:18:11.920Z,931.87
2023-01-09T00:18:21.901Z,931.87
2023-01-09T00:18:31.898Z,931.86
2023-01-09T00:18:41.897Z,931.86
2023-01-09T00:18:51.902Z,931.86
2023-01-09T00:19:01.897Z,931.85
2023-01-09T00:19:11.907Z,931.83
2023-01-09T00:19:21.900Z,931.83
2023-01-09T00:19:31.918Z,931.82
2023-01-09T00:19:41.903Z,931.82
2023-01-09T00:19:51.912Z,931.82
2023-01-09T00:20:01.910Z,931.83
2023-01-09T00:20:11.916Z,931.82
2023-01-09T00:20:21.913Z,931.81
2023-01-09T00:20:31.912Z,931.82
2023-01-09T00:20:41.921Z,931.83
2023-01-09T00:20:51.913Z,931.83
2023-01-09T00:21:01.917Z,931.82
2023-01-09T00:21:11.921Z,931.81
2023-01-09T00:21:21.917Z,931.82
2023-01-09T00:21:31.920Z,931.81
2023-01-09T00:21:41.922Z,931.80
2023-01-09T00:21:51.931Z,931.81
2023-01-09T00:22:01.924Z,931.81
2023-01-09T00:22:11.922Z,931.81
2023-01-09T00:22:21.922Z,931.81
2023-01-09T00:22:31.923Z,931.81
2023-01-09T00:22:41.939Z,931.81
2023-01-09T00:22:51.934Z,931.81
2023-01-09T00:23:01.929Z,931.81
2023-01-09T00:23:11.932Z,931.81
2023-01-09T00:23:21.935Z,931.79
2023-01-09T00:23:31.955Z,931.78
2023-01-09T00:23:41.948Z,931.77
2023-01-09T00:23:51.927Z,931.79
2023-01-09T00:24:01.939Z,931.78
2023-01-09T00:24:11.961Z,931.78
2023-01-09T00:24:21.938Z,931.77
2023-01-09T00:24:31.935Z,931.76
2023-01-09T00:24:41.937Z,931.76
2023-01-09T00:24:51.937Z,931.76
2023-01-09T00:25:01.937Z,931.76
2023-01-09T00:25:11.936Z,931.76
2023-01-09T00:25:21.945Z,931.77
2023-01-09T00:25:31.937Z,931.78
2023-01-09T00:25:42.648Z,931.76
2023-01-09T00:25:51.942Z,931.76
2023-01-09T00:26:01.938Z,931.76
2023-01-09T00:26:11.944Z,931.75
2023-01-09T00:26:21.940Z,931.76
2023-01-09T00:26:31.941Z,931.78
2023-01-09T00:26:41.945Z,931.76
2023-01-09T00:26:51.959Z,931.76
2023-01-09T00:27:01.944Z,931.77
2023-01-09T00:27:11.944Z,931.77
2023-01-09T00:27:21.955Z,931.77
2023-01-09T00:27:31.949Z,931.77
2023-01-09T00:27:41.945Z,931.77
2023-01-09T00:27:51.963Z,931.77
2023-01-09T00:28:01.952Z,931.76
2023-01-09T00:28:11.951Z,931.75
2023-01-09T00:28:21.956Z,931.76
2023-01-09T00:28:31.950Z,931.75
2023-01-09T00:28:41.951Z,931.74
2023-01-09T00:28:51.951Z,931.74
2023-01-09T00:29:01.975Z,931.73
2023-01-09T00:29:11.992Z,931.74
2023-01-09T00:29:21.955Z,931.71
2023-01-09T00:29:31.956Z,931.71
2023-01-09T00:29:41.957Z,931.70
2023-01-09T00:29:51.967Z,931.70
2023-01-09T00:30:01.981Z,931.70
2023-01-09T00:30:11.967Z,931.71
2023-01-09T00:30:21.961Z,931.69
2023-01-09T00:30:32.003Z,931.69
2023-01-09T00:30:41.983Z,931.69
2023-01-09T00:30:51.989Z,931.69
2023-01-09T00:31:01.984Z,931.69
2023-01-09T00:31:11.967Z,931.68
2023-01-09T00:31:21.964Z,931.70
2023-01-09T00:31:31.970Z,931.70
2023-01-09T00:31:41.969Z,931.71
2023-01-09T00:31:51.997Z,931.72
2023-01-09T00:32:01.974Z,931.71
2023-01-09T00:32:11.969Z,931.71
2023-01-09T00:32:21.969Z,931.71
2023-01-09T00:32:31.971Z,931.71
2023-01-09T00:32:41.978Z,931.71
2023-01-09T00:32:51.979Z,931.72
2023-01-09T00:33:01.972Z,931.71
2023-01-09T00:33:11.973Z,931.70
2023-01-09T00:33:21.987Z,931.70
2023-01-09T00:33:31.978Z,931.70
2023-01-09T00:33:41.980Z,931.69
2023-01-09T00:33:51.979Z,931.68
2023-01-09T00:34:01.979Z,931.67
2023-01-09T00:34:11.985Z,931.68
2023-01-09T00:34:21.990Z,931.68
2023-01-09T00:34:31.988Z,931.67
2023-01-09T00:34:41.986Z,931.65
2023-01-09T00:34:51.999Z,931.65
2023-01-09T00:35:01.987Z,931.66
2023-01-09T00:35:11.989Z,931.66
2023-01-09T00:35:21.992Z,931.64
2023-01-09T00:35:31.987Z,931.63
2023-01-09T00:35:41.996Z,931.63
2023-01-09T00:35:51.991Z,931.64
2023-01-09T00:36:02.006Z,931.64
2023-01-09T00:36:11.997Z,931.63
2023-01-09T00:36:22.002Z,931.62
2023-01-09T00:36:31.999Z,931.63
2023-01-09T00:36:41.995Z,931.63
2023-01-09T00:36:51.995Z,931.63
2023-01-09T00:37:02.069Z,931.62
2023-01-09T00:37:12.045Z,931.63
2023-01-09T00:37:22.000Z,931.61
2023-01-09T00:37:32.007Z,931.61
2023-01-09T00:37:42.013Z,931.61
2023-01-09T00:37:52.008Z,931.62
2023-01-09T00:38:02.002Z,931.62
2023-01-09T00:38:12.001Z,931.61
2023-01-09T00:38:22.006Z,931.62
2023-01-09T00:38:32.002Z,931.61
2023-01-09T00:38:42.005Z,931.60
2023-01-09T00:38:52.009Z,931.60
2023-01-09T00:39:02.006Z,931.59
2023-01-09T00:39:12.004Z,931.59
2023-01-09T00:39:22.009Z,931.57
2023-01-09T00:39:32.007Z,931.57
2023-01-09T00:39:42.008Z,931.58
2023-01-09T00:39:52.010Z,931.58
2023-01-09T00:40:02.051Z,931.57
2023-01-09T00:40:12.011Z,931.56
2023-01-09T00:40:22.013Z,931.58
2023-01-09T00:40:32.011Z,931.57
2023-01-09T00:40:42.012Z,931.58
2023-01-09T00:40:52.013Z,931.57
2023-01-09T00:41:02.014Z,931.57
2023-01-09T00:41:12.019Z,931.58
2023-01-09T00:41:22.020Z,931.57
2023-01-09T00:41:32.021Z,931.56
2023-01-09T00:41:42.024Z,931.57
2023-01-09T00:41:52.017Z,931.57
2023-01-09T00:42:02.035Z,931.57
2023-01-09T00:42:12.004Z,931.57
2023-01-09T00:42:22.037Z,931.56
2023-01-09T00:42:32.032Z,931.56
2023-01-09T00:42:42.027Z,931.56
2023-01-09T00:42:52.025Z,931.55
2023-01-09T00:43:02.030Z,931.55
2023-01-09T00:43:12.029Z,931.54
2023-01-09T00:43:22.035Z,931.53
2023-01-09T00:43:32.031Z,931.52
2023-01-09T00:43:42.043Z,931.53
2023-01-09T00:43:52.030Z,931.53
2023-01-09T00:44:02.041Z,931.53
2023-01-09T00:44:12.045Z,931.52
2023-01-09T00:44:22.041Z,931.51
2023-01-09T00:44:32.057Z,931.50
2023-01-09T00:44:42.039Z,931.49
2023-01-09T00:44:52.048Z,931.49
2023-01-09T00:45:02.043Z,931.48
2023-01-09T00:45:12.045Z,931.49
2023-01-09T00:45:22.040Z,931.48
2023-01-09T00:45:32.043Z,931.49
2023-01-09T00:45:42.062Z,931.49
2023-01-09T00:45:52.152Z,931.47
2023-01-09T00:46:02.083Z,931.48
2023-01-09T00:46:12.155Z,931.48
2023-01-09T00:46:22.125Z,931.48
2023-01-09T00:46:32.057Z,931.47
2023-01-09T00:46:42.055Z,931.47
2023-01-09T00:46:52.057Z,931.49
2023-01-09T00:47:02.057Z,931.48
2023-01-09T00:47:12.055Z,931.46
2023-01-09T00:47:22.056Z,931.46
2023-01-09T00:47:32.053Z,931.45
2023-01-09T00:47:42.056Z,931.44
2023-01-09T00:47:52.054Z,931.44
2023-01-09T00:48:02.061Z,931.44
2023-01-09T00:48:12.059Z,931.43
2023-01-09T00:48:22.056Z,931.42
2023-01-09T00:48:32.056Z,931.42
2023-01-09T00:48:42.057Z,931.42
2023-01-09T00:48:52.059Z,931.41
2023-01-09T00:49:02.071Z,931.41
2023-01-09T00:49:12.060Z,931.42
2023-01-09T00:49:22.061Z,931.44
2023-01-09T00:49:32.064Z,931.44
2023-01-09T00:49:42.060Z,931.43
2023-01-09T00:49:52.063Z,931.44
2023-01-09T00:50:02.061Z,931.44
2023-01-09T00:50:12.069Z,931.43
2023-01-09T00:50:22.074Z,931.42
2023-01-09T00:50:32.080Z,931.41
2023-01-09T00:50:42.067Z,931.42
2023-01-09T00:50:52.077Z,931.42
2023-01-09T00:51:02.071Z,931.42
2023-01-09T00:51:12.076Z,931.41
2023-01-09T00:51:22.088Z,931.41
2023-01-09T00:51:32.073Z,931.41
2023-01-09T00:51:42.108Z,931.42
2023-01-09T00:51:52.072Z,931.41
2023-01-09T00:52:02.076Z,931.40
2023-01-09T00:52:12.074Z,931.40
2023-01-09T00:52:22.076Z,931.39
2023-01-09T00:52:32.084Z,931.39
2023-01-09T00:52:42.085Z,931.40
2023-01-09T00:52:52.090Z,931.39
2023-01-09T00:53:02.084Z,931.38
2023-01-09T00:53:12.089Z,931.38
2023-01-09T00:53:22.088Z,931.38
2023-01-09T00:53:32.084Z,931.38
2023-01-09T00:53:42.085Z,931.37
2023-01-09T00:53:52.085Z,931.37
2023-01-09T00:54:02.084Z,931.38
2023-01-09T00:54:12.082Z,931.36
2023-01-09T00:54:22.088Z,931.38
2023-01-09T00:54:32.087Z,931.38
2023-01-09T00:54:42.088Z,931.37
2023-01-09T00:54:52.092Z,931.37
2023-01-09T00:55:02.092Z,931.38
2023-01-09T00:55:12.095Z,931.38
2023-01-09T00:55:22.093Z,931.39
2023-01-09T00:55:32.095Z,931.39
2023-01-09T00:55:42.100Z,931.39
2023-01-09T00:55:52.100Z,931.38
2023-01-09T00:56:02.111Z,931.39
2023-01-09T00:56:12.100Z,931.39
2023-01-09T00:56:22.100Z,931.39
2023-01-09T00:56:32.096Z,931.39
2023-01-09T00:56:42.101Z,931.40
2023-01-09T00:56:52.100Z,931.39
2023-01-09T00:57:02.102Z,931.39
2023-01-09T00:57:12.102Z,931.39
2023-01-09T00:57:22.088Z,931.39
2023-01-09T00:57:32.105Z,931.40
2023-01-09T00:57:42.107Z,931.40
2023-01-09T00:57:52.112Z,931.40
2023-01-09T00:58:02.111Z,931.41
2023-01-09T00:58:12.115Z,931.42
2023-01-09T00:58:22.114Z,931.41
2023-01-09T00:58:32.112Z,931.40
2023-01-09T00:58:42.131Z,931.40
2023-01-09T00:58:52.126Z,931.42
2023-01-09T00:59:02.119Z,931.42
2023-01-09T00:59:12.113Z,931.42
2023-01-09T00:59:22.130Z,931.43
2023-01-09T00:59:32.116Z,931.43
2023-01-09T00:59:42.137Z,931.42
2023-01-09T00:59:52.117Z,931.41
2023-01-09T01:00:02.123Z,931.42
2023-01-09T01:00:12.124Z,931.42
2023-01-09T01:00:22.123Z,931.43
2023-01-09T01:00:32.103Z,931.43
2023-01-09T01:00:42.121Z,931.43
2023-01-09T01:00:52.212Z,931.45
2023-01-09T01:01:02.251Z,931.44
2023-01-09T01:01:12.306Z,931.44
2023-01-09T01:01:22.241Z,931.43
2023-01-09T01:01:32.257Z,931.44
2023-01-09T01:01:42.277Z,931.44
2023-01-09T01:01:52.223Z,931.45
2023-01-09T01:02:02.385Z,931.46
2023-01-09T01:02:12.319Z,931.46
2023-01-09T01:02:22.305Z,931.47
2023-01-09T01:02:32.289Z,931.46
2023-01-09T01:02:42.195Z,931.47
2023-01-09T01:02:52.172Z,931.47
2023-01-09T01:03:02.157Z,931.46
2023-01-09T01:03:12.141Z,931.46
2023-01-09T01:03:22.138Z,931.47
2023-01-09T01:03:32.162Z,931.46
2023-01-09T01:03:42.136Z,931.46
2023-01-09T01:03:52.139Z,931.46
2023-01-09T01:04:02.168Z,931.44
2023-01-09T01:04:12.143Z,931.44
2023-01-09T01:04:22.145Z,931.44
2023-01-09T01:04:32.166Z,931.44
2023-01-09T01:04:42.157Z,931.43
2023-01-09T01:04:52.147Z,931.44
2023-01-09T01:05:02.150Z,931.43
2023-01-09T01:05:12.155Z,931.43
2023-01-09T01:05:22.147Z,931.44
2023-01-09T01:05:32.149Z,931.45
2023-01-09T01:05:42.152Z,931.45
2023-01-09T01:05:52.161Z,931.46
2023-01-09T01:06:02.165Z,931.45
2023-01-09T01:06:12.155Z,931.45
2023-01-09T01:06:22.155Z,931.46
2023-01-09T01:06:32.156Z,931.46
2023-01-09T01:06:42.155Z,931.45
2023-01-09T01:06:52.170Z,931.46
2023-01-09T01:07:02.269Z,931.47
2023-01-09T01:07:12.164Z,931.46
2023-01-09T01:07:22.157Z,931.47
2023-01-09T01:07:32.161Z,931.46
2023-01-09T01:07:42.162Z,931.46
2023-01-09T01:07:52.164Z,931.48
2023-01-09T01:08:02.174Z,931.48
2023-01-09T01:08:12.163Z,931.48
2023-01-09T01:08:22.160Z,931.49
2023-01-09T01:08:32.161Z,931.49
2023-01-09T01:08:42.163Z,931.50
2023-01-09T01:08:52.166Z,931.51
2023-01-09T01:09:02.166Z,931.50
2023-01-09T01:09:12.165Z,931.51
2023-01-09T01:09:22.165Z,931.50
2023-01-09T01:09:32.166Z,931.47
2023-01-09T01:09:42.164Z,931.46
2023-01-09T01:09:52.167Z,931.46
2023-01-09T01:10:02.192Z,931.45
2023-01-09T01:10:12.172Z,931.44
2023-01-09T01:10:22.169Z,931.44
2023-01-09T01:10:32.173Z,931.45
2023-01-09T01:10:42.158Z,931.44
2023-01-09T01:10:52.173Z,931.43
2023-01-09T01:11:02.173Z,931.44
2023-01-09T01:11:12.173Z,931.44
2023-01-09T01:11:22.182Z,931.43
2023-01-09T01:11:32.175Z,931.43
2023-01-09T01:11:42.176Z,931.43
2023-01-09T01:11:52.175Z,931.43
2023-01-09T01:12:02.177Z,931.42
2023-01-09T01:12:12.181Z,931.42
2023-01-09T01:12:22.184Z,931.43
2023-01-09T01:12:32.186Z,931.42
2023-01-09T01:12:42.183Z,931.43
2023-01-09T01:12:52.198Z,931.43
2023-01-09T01:13:02.194Z,931.43
2023-01-09T01:13:12.183Z,931.42
2023-01-09T01:13:22.182Z,931.43
2023-01-09T01:13:32.185Z,931.43
2023-01-09T01:13:42.197Z,931.44
2023-01-09T01:13:52.193Z,931.44
2023-01-09T01:14:02.189Z,931.44
2023-01-09T01:14:12.190Z,931.44
2023-01-09T01:14:22.176Z,931.43
2023-01-09T01:14:32.206Z,931.43
2023-01-09T01:14:42.197Z,931.43
2023-01-09T01:14:52.200Z,931.44
2023-01-09T01:15:02.194Z,931.44
2023-01-09T01:15:12.197Z,931.44
2023-01-09T01:15:22.209Z,931.44
2023-01-09T01:15:32.197Z,931.44
2023-01-09T01:15:42.197Z,931.45
2023-01-09T01:15:52.201Z,931.44
2023-01-09T01:16:02.207Z,931.45
2023-01-09T01:16:12.206Z,931.46
2023-01-09T01:16:22.226Z,931.46
2023-01-09T01:16:32.242Z,931.45
2023-01-09T01:16:42.220Z,931.45
2023-01-09T01:16:52.255Z,931.45
2023-01-09T01:17:02.350Z,931.43
2023-01-09T01:17:12.253Z,931.42
2023-01-09T01:17:22.225Z,931.43
2023-01-09T01:17:32.210Z,931.43
2023-01-09T01:17:42.210Z,931.43
2023-01-09T01:17:52.216Z,931.44
2023-01-09T01:18:02.197Z,931.43
2023-01-09T01:18:12.197Z,931.44
2023-01-09T01:18:22.217Z,931.43
2023-01-09T01:18:32.221Z,931.42
2023-01-09T01:18:42.217Z,931.42
2023-01-09T01:18:52.225Z,931.42
2023-01-09T01:19:02.226Z,931.43
2023-01-09T01:19:12.221Z,931.43
2023-01-09T01:19:22.256Z,931.42
2023-01-09T01:19:32.210Z,931.43
2023-01-09T01:19:42.239Z,931.43
2023-01-09T01:19:52.215Z,931.43
2023-01-09T01:20:02.231Z,931.41
2023-01-09T01:20:12.230Z,931.40
2023-01-09T01:20:22.229Z,931.41
2023-01-09T01:20:32.232Z,931.41
2023-01-09T01:20:42.227Z,931.41
2023-01-09T01:20:52.227Z,931.40
2023-01-09T01:21:02.229Z,931.39
2023-01-09T01:21:12.231Z,931.40
2023-01-09T01:21:22.234Z,931.40
2023-01-09T01:21:32.232Z,931.39
2023-01-09T01:21:42.233Z,931.39
2023-01-09T01:21:52.232Z,931.39
2023-01-09T01:22:02.250Z,931.40
2023-01-09T01:22:12.233Z,931.40
2023-01-09T01:22:22.242Z,931.39
2023-01-09T01:22:32.238Z,931.40
2023-01-09T01:22:42.239Z,931.40
2023-01-09T01:22:52.257Z,931.39
2023-01-09T01:23:02.221Z,931.39
2023-01-09T01:23:12.258Z,931.40
2023-01-09T01:23:22.240Z,931.40
2023-01-09T01:23:32.239Z,931.40
2023-01-09T01:23:42.246Z,931.39
2023-01-09T01:23:52.240Z,931.40
2023-01-09T01:24:02.245Z,931.39
2023-01-09T01:24:12.242Z,931.39
2023-01-09T01:24:22.256Z,931.39
2023-01-09T01:24:32.243Z,931.37
2023-01-09T01:24:42.246Z,931.37
2023-01-09T01:24:52.259Z,931.37
2023-01-09T01:25:02.248Z,931.37
2023-01-09T01:25:12.247Z,931.38
2023-01-09T01:25:22.246Z,931.38
2023-01-09T01:25:32.248Z,931.37
2023-01-09T01:25:42.250Z,931.37
2023-01-09T01:25:52.258Z,931.37
2023-01-09T01:26:02.251Z,931.37
2023-01-09T01:26:12.255Z,931.37
2023-01-09T01:26:22.254Z,931.36
2023-01-09T01:26:32.260Z,931.36
2023-01-09T01:26:42.259Z,931.38
2023-01-09T01:26:52.269Z,931.37
2023-01-09T01:27:02.239Z,931.37
2023-01-09T01:27:12.260Z,931.37
2023-01-09T01:27:22.255Z,931.37
2023-01-09T01:27:32.261Z,931.36
2023-01-09T01:27:42.263Z,931.35
2023-01-09T01:27:52.261Z,931.34
2023-01-09T01:28:02.261Z,931.35
2023-01-09T01:28:12.263Z,931.36
2023-01-09T01:28:22.291Z,931.36
2023-01-09T01:28:32.248Z,931.36
2023-01-09T01:28:42.246Z,931.37
2023-01-09T01:28:52.277Z,931.37
2023-01-09T01:29:02.270Z,931.36
2023-01-09T01:29:12.270Z,931.36
2023-01-09T01:29:22.306Z,931.35
2023-01-09T01:29:32.274Z,931.35
2023-01-09T01:29:42.281Z,931.36
2023-01-09T01:29:52.276Z,931.36
2023-01-09T01:30:02.274Z,931.37
2023-01-09T01:30:12.274Z,931.37
2023-01-09T01:30:22.275Z,931.37
2023-01-09T01:30:32.276Z,931.37
2023-01-09T01:30:42.318Z,931.36
2023-01-09T01:30:52.339Z,931.37
2023-01-09T01:31:02.364Z,931.37
2023-01-09T01:31:12.309Z,931.36
2023-01-09T01:31:22.263Z,931.37
2023-01-09T01:31:32.284Z,931.37
2023-01-09T01:31:42.282Z,931.37
2023-01-09T01:31:52.288Z,931.36
2023-01-09T01:32:02.283Z,931.37
2023-01-09T01:32:12.282Z,931.37
2023-01-09T01:32:22.287Z,931.36
2023-01-09T01:32:32.292Z,931.36
2023-01-09T01:32:42.287Z,931.35
2023-01-09T01:32:52.288Z,931.34
2023-01-09T01:33:02.292Z,931.34
2023-01-09T01:33:12.292Z,931.34
2023-01-09T01:33:22.290Z,931.34
2023-01-09T01:33:32.294Z,931.35
2023-01-09T01:33:42.301Z,931.33
2023-01-09T01:33:52.293Z,931.33
2023-01-09T01:34:02.290Z,931.34
2023-01-09T01:34:12.295Z,931.34
2023-01-09T01:34:22.302Z,931.34
2023-01-09T01:34:32.305Z,931.34
2023-01-09T01:34:42.303Z,931.34
2023-01-09T01:34:52.304Z,931.35
2023-01-09T01:35:02.331Z,931.34
2023-01-09T01:35:12.299Z,931.34
2023-01-09T01:35:22.300Z,931.35
2023-01-09T01:35:32.301Z,931.35
2023-01-09T01:35:42.302Z,931.34
2023-01-09T01:35:52.302Z,931.33
2023-01-09T01:36:02.309Z,931.34
2023-01-09T01:36:12.314Z,931.35
2023-01-09T01:36:22.311Z,931.34
2023-01-09T01:36:32.307Z,931.34
2023-01-09T01:36:42.309Z,931.34
2023-01-09T01:36:52.312Z,931.34
2023-01-09T01:37:02.327Z,931.34
2023-01-09T01:37:12.309Z,931.33
2023-01-09T01:37:22.311Z,931.32
2023-01-09T01:37:32.311Z,931.32
2023-01-09T01:37:42.339Z,931.31
2023-01-09T01:37:52.322Z,931.31
2023-01-09T01:38:02.311Z,931.31
2023-01-09T01:38:12.317Z,931.31
2023-01-09T01:38:22.315Z,931.31
2023-01-09T01:38:32.321Z,931.30
2023-01-09T01:38:42.318Z,931.30
2023-01-09T01:38:52.329Z,931.30
2023-01-09T01:39:02.342Z,931.29
2023-01-09T01:39:12.323Z,931.28
2023-01-09T01:39:22.324Z,931.28
2023-01-09T01:39:32.327Z,931.28
2023-01-09T01:39:42.321Z,931.29
2023-01-09T01:39:52.335Z,931.28
2023-01-09T01:40:02.324Z,931.28
2023-01-09T01:40:12.321Z,931.28
2023-01-09T01:40:22.325Z,931.27
2023-01-09T01:40:32.328Z,931.27
2023-01-09T01:40:42.329Z,931.28
2023-01-09T01:40:52.336Z,931.29
2023-01-09T01:41:02.407Z,931.29
2023-01-09T01:41:12.334Z,931.32
2023-01-09T01:41:22.330Z,931.32
2023-01-09T01:41:32.333Z,931.33
2023-01-09T01:41:42.332Z,931.35
2023-01-09T01:41:52.340Z,931.36
2023-01-09T01:42:02.335Z,931.36
2023-01-09T01:42:12.339Z,931.36
2023-01-09T01:42:22.340Z,931.35
2023-01-09T01:42:32.341Z,931.34
2023-01-09T01:42:42.339Z,931.35
2023-01-09T01:42:52.341Z,931.36
2023-01-09T01:43:02.340Z,931.36
2023-01-09T01:43:12.344Z,931.37
2023-01-09T01:43:22.345Z,931.37
2023-01-09T01:43:32.343Z,931.37
2023-01-09T01:43:42.351Z,931.39
2023-01-09T01:43:52.347Z,931.37
2023-01-09T01:44:02.364Z,931.33
2023-01-09T01:44:12.350Z,931.31
2023-01-09T01:44:22.353Z,931.29
2023-01-09T01:44:32.355Z,931.26
2023-01-09T01:44:42.350Z,931.24
2023-01-09T01:44:52.358Z,931.21
2023-01-09T01:45:02.355Z,931.20
2023-01-09T01:45:12.357Z,931.19
2023-01-09T01:45:22.367Z,931.20
2023-01-09T01:45:32.356Z,931.20
2023-01-09T01:45:42.372Z,931.22
2023-01-09T01:45:52.383Z,931.23
2023-01-09T01:46:02.393Z,931.24
2023-01-09T01:46:12.373Z,931.24
2023-01-09T01:46:22.383Z,931.23
2023-01-09T01:46:32.340Z,931.24
2023-01-09T01:46:42.361Z,931.24
2023-01-09T01:46:52.368Z,931.25
2023-01-09T01:47:02.360Z,931.24
2023-01-09T01:47:12.362Z,931.24
2023-01-09T01:47:22.348Z,931.24
2023-01-09T01:47:32.375Z,931.24
2023-01-09T01:47:42.372Z,931.24
2023-01-09T01:47:52.367Z,931.24
2023-01-09T01:48:02.368Z,931.25
2023-01-09T01:48:12.372Z,931.25
2023-01-09T01:48:22.367Z,931.24
2023-01-09T01:48:32.375Z,931.22
2023-01-09T01:48:42.370Z,931.23
2023-01-09T01:48:52.379Z,931.25
2023-01-09T01:49:02.379Z,931.22
2023-01-09T01:49:12.370Z,931.22
2023-01-09T01:49:22.387Z,931.23
2023-01-09T01:49:32.375Z,931.22
2023-01-09T01:49:42.374Z,931.22
2023-01-09T01:49:52.385Z,931.23
2023-01-09T01:50:02.383Z,931.22
2023-01-09T01:50:12.382Z,931.20
2023-01-09T01:50:22.383Z,931.19
2023-01-09T01:50:32.379Z,931.20
2023-01-09T01:50:42.382Z,931.19
2023-01-09T01:50:52.382Z,931.20
2023-01-09T01:51:02.388Z,931.20
2023-01-09T01:51:12.410Z,931.19
2023-01-09T01:51:22.379Z,931.18
2023-01-09T01:51:32.384Z,931.18
2023-01-09T01:51:42.383Z,931.18
2023-01-09T01:51:52.395Z,931.18
2023-01-09T01:52:02.388Z,931.18
2023-01-09T01:52:12.392Z,931.17
2023-01-09T01:52:22.386Z,931.17
2023-01-09T01:52:32.392Z,931.17
2023-01-09T01:52:42.390Z,931.15
2023-01-09T01:52:52.393Z,931.17
2023-01-09T01:53:02.399Z,931.16
2023-01-09T01:53:12.411Z,931.16
2023-01-09T01:53:22.391Z,931.15
2023-01-09T01:53:32.392Z,931.16
2023-01-09T01:53:42.395Z,931.16
2023-01-09T01:53:52.393Z,931.16
2023-01-09T01:54:02.397Z,931.16
2023-01-09T01:54:12.401Z,931.15
2023-01-09T01:54:22.399Z,931.16
2023-01-09T01:54:32.401Z,931.17
2023-01-09T01:54:42.402Z,931.18
2023-01-09T01:54:52.402Z,931.18
2023-01-09T01:55:02.399Z,931.18
2023-01-09T01:55:12.397Z,931.18
2023-01-09T01:55:22.402Z,931.18
2023-01-09T01:55:32.404Z,931.18
2023-01-09T01:55:42.404Z,931.19
2023-01-09T01:55:52.413Z,931.19
2023-01-09T01:56:02.409Z,931.19
2023-01-09T01:56:12.408Z,931.21
2023-01-09T01:56:22.406Z,931.22
2023-01-09T01:56:32.416Z,931.22
2023-01-09T01:56:42.414Z,931.22
2023-01-09T01:56:52.409Z,931.21
2023-01-09T01:57:02.407Z,931.20
2023-01-09T01:57:12.410Z,931.18
2023-01-09T01:57:22.411Z,931.17
2023-01-09T01:57:32.412Z,931.18
2023-01-09T01:57:42.414Z,931.18
2023-01-09T01:57:52.420Z,931.17
2023-01-09T01:58:02.416Z,931.20
2023-01-09T01:58:12.417Z,931.20
2023-01-09T01:58:22.426Z,931.19
2023-01-09T01:58:32.420Z,931.19
2023-01-09T01:58:42.430Z,931.18
2023-01-09T01:58:52.456Z,931.17
2023-01-09T01:59:02.424Z,931.19
2023-01-09T01:59:12.426Z,931.19
2023-01-09T01:59:22.438Z,931.19
2023-01-09T01:59:32.428Z,931.21
2023-01-09T01:59:42.429Z,931.19
2023-01-09T01:59:52.438Z,931.18
2023-01-09T02:00:02.428Z,931.18
2023-01-09T02:00:12.429Z,931.18
2023-01-09T02:00:22.432Z,931.17
2023-01-09T02:00:32.434Z,931.17
2023-01-09T02:00:42.432Z,931.16
2023-01-09T02:00:52.457Z,931.16
2023-01-09T02:01:02.581Z,931.17
2023-01-09T02:01:12.577Z,931.17
2023-01-09T02:01:22.601Z,931.17
2023-01-09T02:01:32.485Z,931.18
2023-01-09T02:01:42.514Z,931.18
2023-01-09T02:01:52.588Z,931.16
2023-01-09T02:02:02.708Z,931.16
2023-01-09T02:02:12.554Z,931.18
2023-01-09T02:02:22.695Z,931.18
2023-01-09T02:02:32.479Z,931.18
2023-01-09T02:02:42.492Z,931.17
2023-01-09T02:02:52.549Z,931.16
2023-01-09T02:03:02.526Z,931.16
2023-01-09T02:03:12.449Z,931.17
2023-01-09T02:03:22.443Z,931.18
2023-01-09T02:03:32.473Z,931.17
2023-01-09T02:03:42.455Z,931.18
2023-01-09T02:03:52.457Z,931.19
2023-01-09T02:04:02.459Z,931.20
2023-01-09T02:04:12.451Z,931.22
2023-01-09T02:04:22.451Z,931.22
2023-01-09T02:04:32.452Z,931.22
2023-01-09T02:04:42.454Z,931.24